createdAt,value
2018-06-20T00:01:09.912Z,6.03
2018-06-20T00:03:38.169Z,6.30
2018-06-20T00:06:06.362Z,6.83
2018-06-20T00:08:38.609Z,2.87
2018-06-20T00:11:07.004Z,5.40
2018-06-20T00:13:35.290Z,4.60
2018-06-20T00:16:03.860Z,4.58
2018-06-20T00:18:31.889Z,7.75
2018-06-20T00:21:00.114Z,5.20
2018-06-20T00:23:28.074Z,4.92
2018-06-20T00:25:56.345Z,3.42
2018-06-20T00:28:24.639Z,3.80
2018-06-20T00:30:52.908Z,5.75
2018-06-20T00:33:21.229Z,4.95
2018-06-20T00:35:49.462Z,5.60
2018-06-20T00:38:17.929Z,5.77
2018-06-20T00:40:46.220Z,4.62
2018-06-20T00:43:14.170Z,7.80
2018-06-20T00:45:42.468Z,4.10
2018-06-20T00:48:10.641Z,6.15
2018-06-20T00:50:39.189Z,5.90
2018-06-20T00:53:07.325Z,5.97
2018-06-20T00:55:40.906Z,3.95
2018-06-20T00:58:09.181Z,5.97
2018-06-20T01:00:37.601Z,5.12
2018-06-20T01:03:06.543Z,6.25
2018-06-20T01:05:35.479Z,5.53
2018-06-20T01:08:04.137Z,4.35
2018-06-20T01:10:33.433Z,5.62
2018-06-20T01:13:01.441Z,7.28
2018-06-20T01:15:29.376Z,3.02
2018-06-20T01:17:59.377Z,6.28
2018-06-20T01:20:27.430Z,4.78
2018-06-20T01:22:55.557Z,3.70
2018-06-20T01:25:24.368Z,5.33
2018-06-20T01:27:52.686Z,6.80
2018-06-20T01:30:21.806Z,5.37
2018-06-20T01:32:49.906Z,5.45
2018-06-20T01:35:18.664Z,6.03
2018-06-20T01:37:46.953Z,4.83
2018-06-20T01:40:14.999Z,6.25
2018-06-20T01:42:43.493Z,7.58
2018-06-20T01:45:12.177Z,7.33
2018-06-20T01:47:40.625Z,5.40
2018-06-20T01:50:08.667Z,6.17
2018-06-20T01:52:36.718Z,8.05
2018-06-20T01:55:05.325Z,6.40
2018-06-20T01:57:33.671Z,5.97
2018-06-20T02:00:02.124Z,8.67
2018-06-20T02:02:30.549Z,5.30
2018-06-20T02:04:58.926Z,5.25
2018-06-20T02:07:27.902Z,5.80
2018-06-20T02:09:56.199Z,5.40
2018-06-20T02:12:24.354Z,7.70
2018-06-20T02:14:52.652Z,4.45
2018-06-20T02:17:20.801Z,6.03
2018-06-20T02:19:49.187Z,9.63
2018-06-20T02:22:17.182Z,5.17
2018-06-20T02:24:45.329Z,7.67
2018-06-20T02:27:13.513Z,5.90
2018-06-20T02:29:41.848Z,7.25
2018-06-20T02:32:10.145Z,6.37
2018-06-20T02:34:38.475Z,5.60
2018-06-20T02:37:07.132Z,7.58
2018-06-20T02:39:35.404Z,8.05
2018-06-20T02:42:03.564Z,5.73
2018-06-20T02:44:31.871Z,6.65
2018-06-20T02:46:59.937Z,10.30
2018-06-20T02:49:28.038Z,6.55
2018-06-20T02:51:56.092Z,11.10
2018-06-20T02:54:24.317Z,4.62
2018-06-20T02:56:52.996Z,7.95
2018-06-20T02:59:21.690Z,5.10
2018-06-20T03:01:50.112Z,10.50
2018-06-20T03:04:18.271Z,6.70
2018-06-20T03:06:46.471Z,6.20
2018-06-20T03:09:21.832Z,6.15
2018-06-20T03:11:50.023Z,5.80
2018-06-20T03:14:18.368Z,8.03
2018-06-20T03:16:46.825Z,8.98
2018-06-20T03:19:16.554Z,7.20
2018-06-20T03:21:45.288Z,6.95
2018-06-20T03:24:13.503Z,9.35
2018-06-20T03:26:42.102Z,7.22
2018-06-20T03:29:10.186Z,6.87
2018-06-20T03:31:38.535Z,7.30
2018-06-20T03:34:06.605Z,12.93
2018-06-20T03:36:34.913Z,12.98
2018-06-20T03:39:03.711Z,12.55
2018-06-20T03:41:32.046Z,15.98
2018-06-20T03:44:00.324Z,14.55
2018-06-20T03:46:28.630Z,15.80
2018-06-20T03:48:56.739Z,14.43
2018-06-20T03:51:25.025Z,17.90
2018-06-20T03:53:53.829Z,24.57
2018-06-20T03:56:22.870Z,33.02
2018-06-20T03:58:51.274Z,34.83
2018-06-20T04:01:19.693Z,35.45
2018-06-20T04:03:48.187Z,29.80
2018-06-20T04:06:16.934Z,31.25
2018-06-20T04:08:45.138Z,30.80
2018-06-20T04:11:13.358Z,28.12
2018-06-20T04:13:41.605Z,18.32
2018-06-20T04:16:09.792Z,17.75
2018-06-20T04:18:40.499Z,16.25
2018-06-20T04:21:10.225Z,9.53
2018-06-20T04:23:39.013Z,10.23
2018-06-20T04:26:08.317Z,9.43
2018-06-20T04:28:37.214Z,8.20
2018-06-20T04:31:06.361Z,6.92
2018-06-20T04:33:35.848Z,9.30
2018-06-20T04:36:04.337Z,5.53
2018-06-20T04:38:32.562Z,6.22
2018-06-20T04:41:01.076Z,5.03
2018-06-20T04:43:29.926Z,7.03
2018-06-20T04:45:58.516Z,6.85
2018-06-20T04:48:26.732Z,5.85
2018-06-20T04:50:55.575Z,7.85
2018-06-20T04:53:24.103Z,10.10
2018-06-20T04:55:52.339Z,6.20
2018-06-20T04:58:20.634Z,6.17
2018-06-20T05:00:49.083Z,5.50
2018-06-20T05:03:17.883Z,8.30
2018-06-20T05:05:46.129Z,7.97
2018-06-20T05:08:14.132Z,6.22
2018-06-20T05:10:42.379Z,7.12
2018-06-20T05:13:10.477Z,8.10
2018-06-20T05:15:38.674Z,4.05
2018-06-20T05:18:07.137Z,7.90
2018-06-20T05:20:35.389Z,10.55
2018-06-20T05:23:03.494Z,7.10
2018-06-20T05:25:31.675Z,5.87
2018-06-20T05:27:59.714Z,5.12
2018-06-20T05:30:27.986Z,7.55
2018-06-20T05:32:56.338Z,7.75
2018-06-20T05:35:24.861Z,5.40
2018-06-20T05:37:53.239Z,7.22
2018-06-20T05:40:21.642Z,5.10
2018-06-20T05:42:49.909Z,6.62
2018-06-20T05:45:18.382Z,5.33
2018-06-20T05:47:46.860Z,6.80
2018-06-20T05:50:15.055Z,4.22
2018-06-20T05:52:43.514Z,7.12
2018-06-20T05:55:11.700Z,4.95
2018-06-20T05:57:39.861Z,5.20
2018-06-20T06:00:08.757Z,5.90
2018-06-20T06:02:37.464Z,12.25
2018-06-20T06:05:05.695Z,9.43
2018-06-20T06:07:34.175Z,7.78
2018-06-20T06:10:02.791Z,6.28
2018-06-20T06:12:31.586Z,6.80
2018-06-20T06:14:59.845Z,4.40
2018-06-20T06:17:28.031Z,5.60
2018-06-20T06:19:56.511Z,5.05
2018-06-20T06:22:24.579Z,6.40
2018-06-20T06:24:52.759Z,6.60
2018-06-20T06:27:21.066Z,10.10
2018-06-20T06:29:49.211Z,4.40
2018-06-20T06:32:17.235Z,4.60
2018-06-20T06:34:45.322Z,8.93
2018-06-20T06:37:14.255Z,7.83
2018-06-20T06:39:42.545Z,10.10
2018-06-20T06:42:10.896Z,6.65
2018-06-20T06:44:39.453Z,7.58
2018-06-20T06:47:07.677Z,6.97
2018-06-20T06:49:36.158Z,5.13
2018-06-20T06:52:04.146Z,8.70
2018-06-20T06:54:32.322Z,6.00
2018-06-20T06:57:00.269Z,7.50
2018-06-20T06:59:29.561Z,5.17
2018-06-20T07:01:58.065Z,10.00
2018-06-20T07:04:26.413Z,6.70
2018-06-20T07:06:54.674Z,8.40
2018-06-20T07:09:23.259Z,5.35
2018-06-20T07:11:51.658Z,8.07
2018-06-20T07:14:21.650Z,8.38
2018-06-20T07:16:52.521Z,13.03
2018-06-20T07:19:20.459Z,5.30
2018-06-20T07:21:48.741Z,9.98
2018-06-20T07:24:17.572Z,8.65
2018-06-20T07:26:45.897Z,11.38
2018-06-20T07:29:13.984Z,7.17
2018-06-20T07:31:42.592Z,6.00
2018-06-20T07:34:10.810Z,9.10
2018-06-20T07:36:39.313Z,11.35
2018-06-20T07:39:08.034Z,8.07
2018-06-20T07:41:37.023Z,6.67
2018-06-20T07:44:05.395Z,8.20
2018-06-20T07:46:33.663Z,7.10
2018-06-20T07:49:01.964Z,5.60
2018-06-20T07:51:30.130Z,5.42
2018-06-20T07:53:59.013Z,9.30
2018-06-20T07:56:27.110Z,4.95
2018-06-20T07:58:57.850Z,6.13
2018-06-20T08:01:37.166Z,5.70
2018-06-20T08:04:10.691Z,4.65
2018-06-20T08:06:44.509Z,6.50
2018-06-20T08:09:18.583Z,5.62
2018-06-20T08:11:52.000Z,7.58
2018-06-20T08:14:25.785Z,6.65
2018-06-20T08:16:59.694Z,8.70
2018-06-20T08:19:33.237Z,8.10
2018-06-20T08:22:01.777Z,8.20
2018-06-20T08:24:29.929Z,10.85
2018-06-20T08:26:58.534Z,8.58
2018-06-20T08:29:26.825Z,5.22
2018-06-20T08:31:55.663Z,5.25
2018-06-20T08:34:24.286Z,3.30
2018-06-20T08:36:52.766Z,5.85
2018-06-20T08:39:21.119Z,8.95
2018-06-20T08:41:50.047Z,4.53
2018-06-20T08:44:18.630Z,5.60
2018-06-20T08:46:46.705Z,5.70
2018-06-20T08:49:14.720Z,6.00
2018-06-20T08:51:43.563Z,4.22
2018-06-20T08:54:11.954Z,6.80
2018-06-20T08:56:40.318Z,5.03
2018-06-20T08:59:08.478Z,7.20
2018-06-20T09:01:36.579Z,7.20
2018-06-20T09:05:14.375Z,4.43
2018-06-20T09:07:47.852Z,5.92
2018-06-20T09:10:29.260Z,6.35
2018-06-20T09:13:02.898Z,5.60
2018-06-20T09:15:36.233Z,7.30
2018-06-20T09:18:10.122Z,4.15
2018-06-20T09:20:38.410Z,4.77
2018-06-20T09:23:06.490Z,4.90
2018-06-20T09:25:34.721Z,6.78
2018-06-20T09:28:02.981Z,5.70
2018-06-20T09:30:31.727Z,6.25
2018-06-20T09:33:00.118Z,4.97
2018-06-20T09:35:28.402Z,4.20
2018-06-20T09:37:56.474Z,5.03
2018-06-20T09:40:24.785Z,6.80
2018-06-20T09:42:53.099Z,6.45
2018-06-20T09:45:21.464Z,8.70
2018-06-20T09:47:49.594Z,6.87
2018-06-20T09:50:23.189Z,7.28
2018-06-20T09:52:51.313Z,7.75
2018-06-20T09:55:19.370Z,5.60
2018-06-20T09:57:47.718Z,6.15
2018-06-20T10:00:21.194Z,10.30
2018-06-20T10:02:54.693Z,7.17
2018-06-20T10:05:28.339Z,8.27
2018-06-20T10:08:02.120Z,9.75
2018-06-20T10:10:35.899Z,9.10
2018-06-20T10:13:09.535Z,6.10
2018-06-20T10:15:37.822Z,7.03
2018-06-20T10:18:06.081Z,7.40
2018-06-20T10:20:34.640Z,7.23
2018-06-20T10:23:03.243Z,7.62
2018-06-20T10:25:31.942Z,7.03
2018-06-20T10:28:00.730Z,6.60
2018-06-20T10:30:28.939Z,12.47
2018-06-20T10:32:57.374Z,6.28
2018-06-20T10:35:25.875Z,8.40
2018-06-20T10:37:53.977Z,8.60
2018-06-20T10:40:22.714Z,8.70
2018-06-20T10:42:51.615Z,8.90
2018-06-20T10:45:25.388Z,7.80
2018-06-20T10:47:53.949Z,10.32
2018-06-20T10:50:22.526Z,7.12
2018-06-20T10:52:51.169Z,7.23
2018-06-20T10:55:19.757Z,10.15
2018-06-20T10:57:53.350Z,8.33
2018-06-20T11:00:26.742Z,6.30
2018-06-20T11:03:00.597Z,10.32
2018-06-20T11:05:34.109Z,7.97
2018-06-20T11:08:08.071Z,8.40
2018-06-20T11:10:41.690Z,6.75
2018-06-20T11:13:11.871Z,7.05
2018-06-20T11:15:40.358Z,9.58
2018-06-20T11:18:08.576Z,8.55
2018-06-20T11:20:42.171Z,8.10
2018-06-20T11:23:10.641Z,8.58
2018-06-20T11:25:38.905Z,6.30
2018-06-20T11:28:11.178Z,6.90
2018-06-20T11:30:39.715Z,8.93
2018-06-20T11:33:08.330Z,7.40
2018-06-20T11:35:36.679Z,7.08
2018-06-20T11:38:05.413Z,8.15
2018-06-20T11:40:33.610Z,6.53
2018-06-20T11:43:02.557Z,7.10
2018-06-20T11:45:36.594Z,7.87
2018-06-20T11:48:04.670Z,7.70
2018-06-20T11:50:32.799Z,6.95
2018-06-20T11:53:07.173Z,9.35
2018-06-20T11:55:38.433Z,8.60
2018-06-20T11:58:12.060Z,9.45
2018-06-20T12:00:45.758Z,9.03
2018-06-20T12:03:19.307Z,10.07
2018-06-20T12:05:53.355Z,9.93
2018-06-20T12:08:26.975Z,11.80
2018-06-20T12:11:01.055Z,7.65
2018-06-20T12:13:34.644Z,8.07
2018-06-20T12:16:08.082Z,11.00
2018-06-20T12:18:41.638Z,9.95
2018-06-20T12:21:15.245Z,8.33
2018-06-20T12:23:48.774Z,8.10
2018-06-20T12:26:22.475Z,11.38
2018-06-20T12:28:56.431Z,10.85
2018-06-20T12:31:29.992Z,8.73
2018-06-20T12:34:03.689Z,8.23
2018-06-20T12:36:37.702Z,9.67
2018-06-20T12:39:06.145Z,11.20
2018-06-20T12:41:39.613Z,9.93
2018-06-20T12:44:12.934Z,8.27
2018-06-20T12:46:47.933Z,10.68
2018-06-20T12:49:18.740Z,11.53
2018-06-20T12:51:47.816Z,8.67
2018-06-20T12:54:15.890Z,10.50
2018-06-20T12:56:43.960Z,14.47
2018-06-20T12:59:11.944Z,12.50
2018-06-20T13:01:39.939Z,9.15
2018-06-20T13:04:08.674Z,8.13
2018-06-20T13:06:37.341Z,11.80
2018-06-20T13:09:08.534Z,11.35
2018-06-20T13:11:36.916Z,10.30
2018-06-20T13:14:05.025Z,11.20
2018-06-20T13:16:33.793Z,12.30
2018-06-20T13:19:02.597Z,11.33
2018-06-20T13:21:30.741Z,12.25
2018-06-20T13:23:59.289Z,13.22
2018-06-20T13:26:27.675Z,12.05
2018-06-20T13:28:55.891Z,10.18
2018-06-20T13:31:30.374Z,11.00
2018-06-20T13:34:05.529Z,10.55
2018-06-20T13:36:39.242Z,9.18
2018-06-20T13:39:13.150Z,11.20
2018-06-20T13:41:47.020Z,12.70
2018-06-20T13:44:20.904Z,9.63
2018-06-20T13:46:54.520Z,9.55
2018-06-20T13:49:22.680Z,12.07
2018-06-20T13:51:51.276Z,14.20
2018-06-20T13:54:20.238Z,11.12
2018-06-20T13:56:49.056Z,12.95
2018-06-20T13:59:17.232Z,10.90
2018-06-20T14:01:45.598Z,10.65
2018-06-20T14:04:13.825Z,11.97
2018-06-20T14:06:42.221Z,12.70
2018-06-20T14:09:11.328Z,9.85
2018-06-20T14:11:39.660Z,12.90
2018-06-20T14:14:07.611Z,12.63
2018-06-20T14:16:36.123Z,13.50
2018-06-20T14:19:04.313Z,11.37
2018-06-20T14:21:42.117Z,11.50
2018-06-20T14:24:11.815Z,13.40
2018-06-20T14:26:40.745Z,12.75
2018-06-20T14:29:09.805Z,13.88
2018-06-20T14:31:43.858Z,12.98
2018-06-20T14:34:17.416Z,12.57
2018-06-20T14:36:50.870Z,10.80
2018-06-20T14:39:24.242Z,9.65
2018-06-20T14:41:57.793Z,13.00
2018-06-20T14:44:25.871Z,12.05
2018-06-20T14:46:53.870Z,11.30
2018-06-20T14:49:22.053Z,12.50
2018-06-20T14:51:50.062Z,12.25
2018-06-20T14:54:17.970Z,11.12
2018-06-20T14:56:46.230Z,25.92
2018-06-20T14:59:14.408Z,9.35
2018-06-20T15:01:42.492Z,12.58
2018-06-20T15:04:10.523Z,10.13
2018-06-20T15:06:38.552Z,12.37
2018-06-20T15:09:07.065Z,10.75
2018-06-20T15:11:35.116Z,14.10
2018-06-20T15:14:03.256Z,11.73
2018-06-20T15:16:36.557Z,11.00
2018-06-20T15:19:06.002Z,14.30
2018-06-20T15:21:34.227Z,10.08
2018-06-20T15:24:02.468Z,10.40
2018-06-20T15:26:36.004Z,14.43
2018-06-20T15:29:09.636Z,13.03
2018-06-20T15:31:43.180Z,12.43
2018-06-20T15:34:16.736Z,13.80
2018-06-20T15:36:50.167Z,11.75
2018-06-20T15:39:18.477Z,10.53
2018-06-20T15:41:46.495Z,9.88
2018-06-20T15:44:14.445Z,13.20
2018-06-20T15:46:42.730Z,10.58
2018-06-20T15:49:11.029Z,11.60
2018-06-20T15:51:39.545Z,11.00
2018-06-20T15:54:08.852Z,13.10
2018-06-20T15:56:36.901Z,12.50
2018-06-20T15:59:04.978Z,13.80
2018-06-20T16:01:33.276Z,15.93
2018-06-20T16:04:01.395Z,11.80
2018-06-20T16:06:29.477Z,15.55
2018-06-20T16:09:03.229Z,12.20
2018-06-20T16:11:31.331Z,13.72
2018-06-20T16:13:59.334Z,11.50
2018-06-20T16:16:27.592Z,18.32
2018-06-20T16:19:01.247Z,12.20
2018-06-20T16:21:35.380Z,12.40
2018-06-20T16:24:09.106Z,11.85
2018-06-20T16:26:42.691Z,12.67
2018-06-20T16:29:16.461Z,12.82
2018-06-20T16:31:45.731Z,14.43
2018-06-20T16:34:13.845Z,12.53
2018-06-20T16:36:42.217Z,12.30
2018-06-20T16:39:10.986Z,13.35
2018-06-20T16:41:38.993Z,10.82
2018-06-20T16:44:07.101Z,13.35
2018-06-20T16:46:35.807Z,12.93
2018-06-20T16:49:03.837Z,10.90
2018-06-20T16:51:32.303Z,24.27
2018-06-20T16:54:00.581Z,11.90
2018-06-20T16:56:29.165Z,11.70
2018-06-20T16:58:57.463Z,13.22
2018-06-20T17:01:31.123Z,12.30
2018-06-20T17:03:59.633Z,11.53
2018-06-20T17:06:29.261Z,11.60
2018-06-20T17:08:57.532Z,11.97
2018-06-20T17:11:25.997Z,12.98
2018-06-20T17:13:59.905Z,11.03
2018-06-20T17:16:33.656Z,10.95
2018-06-20T17:19:07.345Z,12.28
2018-06-20T17:21:41.017Z,13.08
2018-06-20T17:24:14.796Z,12.60
2018-06-20T17:26:43.019Z,14.18
2018-06-20T17:29:11.558Z,11.28
2018-06-20T17:31:39.749Z,11.35
2018-06-20T17:34:08.012Z,11.90
2018-06-20T17:36:36.727Z,13.90
2018-06-20T17:39:06.678Z,9.78
2018-06-20T17:41:35.215Z,11.95
2018-06-20T17:44:03.402Z,12.93
2018-06-20T17:46:31.479Z,11.93
2018-06-20T17:49:00.051Z,9.67
2018-06-20T17:51:28.440Z,11.30
2018-06-20T17:53:57.118Z,9.50
2018-06-20T17:56:25.610Z,11.60
2018-06-20T17:58:53.978Z,13.58
2018-06-20T18:01:22.459Z,10.95
2018-06-20T18:03:51.062Z,11.75
2018-06-20T18:06:24.578Z,12.98
2018-06-20T18:08:58.059Z,12.30
2018-06-20T18:11:31.606Z,11.10
2018-06-20T18:14:05.180Z,17.95
2018-06-20T18:16:38.928Z,15.32
2018-06-20T18:19:07.334Z,11.65
2018-06-20T18:21:35.504Z,17.30
2018-06-20T18:24:03.602Z,12.68
2018-06-20T18:26:32.929Z,11.95
2018-06-20T18:29:02.197Z,12.70
2018-06-20T18:31:30.631Z,12.85
2018-06-20T18:33:58.707Z,15.72
2018-06-20T18:36:26.994Z,13.10
2018-06-20T18:38:55.933Z,13.03
2018-06-20T18:41:24.153Z,14.10
2018-06-20T18:43:52.454Z,13.85
2018-06-20T18:46:21.148Z,13.08
2018-06-20T18:48:49.789Z,13.87
2018-06-20T18:51:17.845Z,16.80
2018-06-20T18:53:45.927Z,12.88
2018-06-20T18:56:14.326Z,14.85
2018-06-20T18:58:47.883Z,17.27
2018-06-20T19:01:21.762Z,16.03
2018-06-20T19:03:55.382Z,16.57
2018-06-20T19:06:28.909Z,13.90
2018-06-20T19:09:00.891Z,15.83
2018-06-20T19:11:29.428Z,16.07
2018-06-20T19:13:57.563Z,18.65
2018-06-20T19:16:25.804Z,35.53
2018-06-20T19:18:54.349Z,25.03
2018-06-20T19:21:22.836Z,17.60
2018-06-20T19:23:51.032Z,19.90
2018-06-20T19:26:19.409Z,13.65
2018-06-20T19:28:47.567Z,15.58
2018-06-20T19:31:16.242Z,14.90
2018-06-20T19:33:44.845Z,13.72
2018-06-20T19:36:13.343Z,14.83
2018-06-20T19:38:41.391Z,17.32
2018-06-20T19:41:09.567Z,16.63
2018-06-20T19:43:41.911Z,16.95
2018-06-20T19:46:10.307Z,16.13
2018-06-20T19:48:38.386Z,15.93
2018-06-20T19:51:06.762Z,16.57
2018-06-20T19:53:35.037Z,14.40
2018-06-20T19:56:03.461Z,15.50
2018-06-20T19:58:32.095Z,16.17
2018-06-20T20:01:00.109Z,17.25
2018-06-20T20:03:28.269Z,15.93
2018-06-20T20:05:56.828Z,14.73
2018-06-20T20:08:25.466Z,15.55
2018-06-20T20:10:54.396Z,17.62
2018-06-20T20:13:22.722Z,14.93
2018-06-20T20:15:51.029Z,18.32
2018-06-20T20:18:19.182Z,15.45
2018-06-20T20:20:47.290Z,16.10
2018-06-20T20:23:15.781Z,17.10
2018-06-20T20:25:44.115Z,21.37
2018-06-20T20:28:12.382Z,15.10
2018-06-20T20:30:40.558Z,15.30
2018-06-20T20:33:08.765Z,16.95
2018-06-20T20:35:37.669Z,16.67
2018-06-20T20:38:06.712Z,15.45
2018-06-20T20:40:34.755Z,14.93
2018-06-20T20:43:03.235Z,17.30
2018-06-20T20:45:31.310Z,15.08
2018-06-20T20:47:59.455Z,16.60
2018-06-20T20:50:27.958Z,17.50
2018-06-20T20:52:56.390Z,17.87
2018-06-20T20:55:25.435Z,14.70
2018-06-20T20:57:53.442Z,14.40
2018-06-20T21:00:23.103Z,15.95
2018-06-20T21:02:51.702Z,18.55
2018-06-20T21:05:19.826Z,17.47
2018-06-20T21:07:48.558Z,15.63
2018-06-20T21:10:17.255Z,14.18
2018-06-20T21:12:45.275Z,21.20
2018-06-20T21:15:13.910Z,14.15
2018-06-20T21:17:41.958Z,27.20
2018-06-20T21:20:10.695Z,16.27
2018-06-20T21:22:39.042Z,14.70
2018-06-20T21:25:08.133Z,14.78
2018-06-20T21:27:36.332Z,13.88
2018-06-20T21:30:04.609Z,16.10
2018-06-20T21:32:33.161Z,16.93
2018-06-20T21:35:01.317Z,14.70
2018-06-20T21:37:29.563Z,15.37
2018-06-20T21:39:57.732Z,13.80
2018-06-20T21:42:25.979Z,14.13
2018-06-20T21:44:54.254Z,13.60
2018-06-20T21:47:22.634Z,15.27
2018-06-20T21:49:51.402Z,14.05
2018-06-20T21:52:19.536Z,18.07
2018-06-20T21:54:47.611Z,13.45
2018-06-20T21:57:15.810Z,23.55
2018-06-20T21:59:44.221Z,19.77
2018-06-20T22:02:12.389Z,15.93
2018-06-20T22:04:40.671Z,18.87
2018-06-20T22:07:09.251Z,18.60
2018-06-20T22:09:37.306Z,16.32
2018-06-20T22:12:05.537Z,15.30
2018-06-20T22:14:33.731Z,16.60
2018-06-20T22:17:02.183Z,15.33
2018-06-20T22:19:30.917Z,20.35
2018-06-20T22:21:58.945Z,15.13
2018-06-20T22:24:27.668Z,17.17
2018-06-20T22:26:56.648Z,13.55
2018-06-20T22:29:24.621Z,15.90
2018-06-20T22:31:53.106Z,17.70
2018-06-20T22:34:21.313Z,15.53
2018-06-20T22:36:49.329Z,17.70
2018-06-20T22:39:17.502Z,17.48
2018-06-20T22:41:45.702Z,19.52
2018-06-20T22:44:13.778Z,18.87
2018-06-20T22:46:41.764Z,19.07
2018-06-20T22:49:10.738Z,13.00
2018-06-20T22:51:38.789Z,17.65
2018-06-20T22:54:06.822Z,15.93
2018-06-20T22:56:34.756Z,14.73
2018-06-20T22:59:02.873Z,17.10
2018-06-20T23:01:30.881Z,15.95
2018-06-20T23:03:58.921Z,17.87
2018-06-20T23:06:26.929Z,15.60
2018-06-20T23:08:54.930Z,16.13
2018-06-20T23:11:23.132Z,17.75
2018-06-20T23:13:51.450Z,17.15
2018-06-20T23:16:19.817Z,17.50
2018-06-20T23:18:47.786Z,18.00
2018-06-20T23:21:15.908Z,17.67
2018-06-20T23:23:43.897Z,19.30
2018-06-20T23:26:11.969Z,20.45
2018-06-20T23:28:39.889Z,20.68
2018-06-20T23:31:07.915Z,19.25
2018-06-20T23:33:36.238Z,19.60
2018-06-20T23:36:04.578Z,23.32
2018-06-20T23:38:33.237Z,21.42
2018-06-20T23:41:01.169Z,24.23
2018-06-20T23:43:29.089Z,23.77
2018-06-20T23:46:53.764Z,22.77
2018-06-20T23:49:21.972Z,22.75
2018-06-20T23:51:50.499Z,23.57
2018-06-20T23:54:18.969Z,22.40
2018-06-20T23:56:47.262Z,24.20
2018-06-20T23:59:15.204Z,19.30
